createdAt,value
2022-11-07T00:00:16.969Z,1.20
2022-11-07T00:02:46.447Z,1.33
2022-11-07T00:05:16.388Z,1.17
2022-11-07T00:07:45.749Z,1.30
2022-11-07T00:10:15.216Z,1.10
2022-11-07T00:12:44.666Z,1.10
2022-11-07T00:15:15.488Z,1.08
2022-11-07T00:17:44.873Z,1.08
2022-11-07T00:20:14.342Z,1.10
2022-11-07T00:22:43.755Z,0.95
2022-11-07T00:25:13.185Z,1.00
2022-11-07T00:27:42.689Z,1.10
2022-11-07T00:30:15.510Z,0.93
2022-11-07T00:32:45.000Z,1.10
2022-11-07T00:35:14.572Z,1.05
2022-11-07T00:37:43.980Z,1.45
2022-11-07T00:40:14.076Z,1.20
2022-11-07T00:42:43.567Z,0.85
2022-11-07T00:45:13.352Z,1.35
2022-11-07T00:47:44.103Z,1.02
2022-11-07T00:50:13.524Z,1.20
2022-11-07T00:52:42.985Z,1.50
2022-11-07T00:55:13.013Z,1.30
2022-11-07T00:57:42.410Z,1.20
2022-11-07T01:00:14.799Z,1.00
2022-11-07T01:03:05.527Z,1.02
2022-11-07T01:05:33.942Z,0.98
2022-11-07T01:08:03.473Z,0.98
2022-11-07T01:10:33.416Z,1.10
2022-11-07T01:13:02.846Z,1.10
2022-11-07T01:15:32.223Z,1.20
2022-11-07T01:18:02.991Z,1.40
2022-11-07T01:20:32.405Z,1.10
2022-11-07T01:23:01.770Z,1.35
2022-11-07T01:25:31.303Z,1.15
2022-11-07T01:28:00.714Z,1.45
2022-11-07T01:30:30.113Z,1.23
2022-11-07T01:32:59.770Z,1.25
2022-11-07T01:35:30.537Z,1.50
2022-11-07T01:38:00.447Z,1.10
2022-11-07T01:40:30.645Z,1.17
2022-11-07T01:43:00.376Z,1.20
2022-11-07T01:45:32.048Z,1.00
2022-11-07T01:48:03.339Z,1.60
2022-11-07T01:50:34.125Z,1.27
2022-11-07T01:53:03.799Z,1.20
2022-11-07T01:55:36.651Z,1.35
2022-11-07T01:58:10.092Z,2.70
2022-11-07T02:00:40.115Z,1.20
2022-11-07T02:03:14.039Z,1.13
2022-11-07T02:05:50.374Z,1.10
2022-11-07T02:08:20.909Z,1.33
2022-11-07T02:10:51.004Z,1.13
2022-11-07T02:13:27.659Z,1.40
2022-11-07T02:16:01.072Z,1.25
2022-11-07T02:18:31.919Z,1.58
2022-11-07T02:21:13.589Z,1.25
2022-11-07T02:23:52.876Z,1.50
2022-11-07T02:26:25.651Z,1.60
2022-11-07T02:28:58.065Z,1.33
2022-11-07T02:31:27.555Z,1.50
2022-11-07T02:33:57.063Z,1.30
2022-11-07T02:36:27.300Z,1.40
2022-11-07T02:39:00.836Z,1.50
2022-11-07T02:41:35.668Z,1.10
2022-11-07T02:44:11.266Z,1.00
2022-11-07T02:46:41.695Z,1.20
2022-11-07T02:49:11.100Z,0.90
2022-11-07T02:51:40.627Z,1.00
2022-11-07T02:54:10.105Z,0.85
2022-11-07T02:56:40.892Z,1.10
2022-11-07T02:59:10.453Z,1.30
2022-11-07T03:01:40.110Z,1.20
2022-11-07T03:04:09.931Z,1.17
2022-11-07T03:06:39.353Z,1.60
2022-11-07T03:09:08.737Z,1.67
2022-11-07T03:11:38.116Z,1.20
2022-11-07T03:14:08.836Z,1.58
2022-11-07T03:16:38.326Z,1.50
2022-11-07T03:19:07.703Z,1.25
2022-11-07T03:21:37.098Z,1.20
2022-11-07T03:24:07.517Z,1.50
2022-11-07T03:26:36.911Z,1.38
2022-11-07T03:29:06.564Z,1.20
2022-11-07T03:31:37.659Z,1.17
2022-11-07T03:34:07.023Z,1.00
2022-11-07T03:36:36.482Z,2.00
2022-11-07T03:39:05.952Z,1.30
2022-11-07T03:41:35.363Z,1.30
2022-11-07T03:44:04.995Z,1.23
2022-11-07T03:46:35.766Z,1.10
2022-11-07T03:49:05.407Z,1.08
2022-11-07T03:51:34.806Z,1.33
2022-11-07T03:54:04.540Z,1.20
2022-11-07T03:56:33.955Z,1.20
2022-11-07T03:59:03.490Z,1.00
2022-11-07T04:01:33.316Z,1.10
2022-11-07T04:04:04.248Z,1.40
2022-11-07T04:06:33.663Z,1.10
2022-11-07T04:09:03.056Z,0.90
2022-11-07T04:11:49.843Z,1.30
2022-11-07T04:14:36.630Z,1.15
2022-11-07T04:17:20.958Z,1.45
2022-11-07T04:19:55.938Z,1.23
2022-11-07T04:22:27.136Z,1.23
2022-11-07T04:24:56.515Z,0.82
2022-11-07T04:27:42.928Z,1.15
2022-11-07T04:30:23.729Z,1.20
2022-11-07T04:32:55.824Z,1.13
2022-11-07T04:35:30.216Z,1.17
2022-11-07T04:38:00.570Z,0.90
2022-11-07T04:40:31.421Z,1.10
2022-11-07T04:43:01.011Z,1.05
2022-11-07T04:45:30.413Z,1.13
2022-11-07T04:47:59.876Z,1.45
2022-11-07T04:50:30.703Z,1.48
2022-11-07T04:53:00.063Z,1.05
2022-11-07T04:55:31.263Z,1.38
2022-11-07T04:58:00.667Z,1.00
2022-11-07T05:00:30.069Z,1.40
2022-11-07T05:02:59.628Z,1.33
2022-11-07T05:05:30.672Z,1.40
2022-11-07T05:08:00.078Z,0.93
2022-11-07T05:10:31.030Z,1.10
2022-11-07T05:13:00.437Z,0.95
2022-11-07T05:15:29.836Z,1.40
2022-11-07T05:17:59.248Z,1.38
2022-11-07T05:20:33.826Z,1.08
2022-11-07T05:23:17.759Z,1.20
2022-11-07T05:25:50.522Z,1.20
2022-11-07T05:28:31.190Z,1.40
2022-11-07T05:31:07.000Z,1.58
2022-11-07T05:33:36.947Z,1.15
2022-11-07T05:36:21.149Z,1.23
2022-11-07T05:38:53.417Z,1.42
2022-11-07T05:41:23.596Z,1.63
2022-11-07T05:43:53.003Z,1.45
2022-11-07T05:46:22.397Z,2.30
2022-11-07T05:48:56.575Z,2.03
2022-11-07T05:51:30.417Z,2.00
2022-11-07T05:53:59.807Z,1.40
2022-11-07T05:56:29.376Z,1.50
2022-11-07T05:58:59.078Z,1.30
2022-11-07T06:01:28.570Z,2.28
2022-11-07T06:03:58.459Z,2.65
2022-11-07T06:06:29.353Z,3.08
2022-11-07T06:08:59.100Z,2.67
2022-11-07T06:11:28.840Z,1.92
2022-11-07T06:13:58.300Z,2.10
2022-11-07T06:16:29.020Z,1.80
2022-11-07T06:18:58.560Z,2.00
2022-11-07T06:21:29.606Z,4.38
2022-11-07T06:24:00.046Z,2.08
2022-11-07T06:26:29.458Z,1.67
2022-11-07T06:28:58.845Z,1.58
2022-11-07T06:31:28.251Z,1.73
2022-11-07T06:33:57.799Z,1.25
2022-11-07T06:36:27.283Z,1.60
2022-11-07T06:38:58.603Z,1.30
2022-11-07T06:41:28.224Z,1.05
2022-11-07T06:43:57.790Z,1.42
2022-11-07T06:46:28.145Z,1.60
2022-11-07T06:48:57.817Z,1.73
2022-11-07T06:51:29.388Z,1.60
2022-11-07T06:54:00.213Z,1.80
2022-11-07T06:56:29.652Z,1.70
2022-11-07T06:58:59.006Z,1.35
2022-11-07T07:01:28.609Z,1.67
2022-11-07T07:03:59.986Z,1.33
2022-11-07T07:06:56.045Z,1.15
2022-11-07T07:09:28.242Z,1.50
2022-11-07T07:11:57.889Z,1.23
2022-11-07T07:14:27.430Z,1.30
2022-11-07T07:16:58.797Z,1.10
2022-11-07T07:19:30.796Z,1.13
2022-11-07T07:22:00.303Z,1.63
2022-11-07T07:24:31.156Z,1.55
2022-11-07T07:27:00.609Z,1.25
2022-11-07T07:29:29.986Z,1.13
2022-11-07T07:31:59.579Z,1.02
2022-11-07T07:34:29.240Z,0.70
2022-11-07T07:36:58.665Z,1.30
2022-11-07T07:39:28.144Z,1.35
2022-11-07T07:41:58.989Z,1.00
2022-11-07T07:44:28.502Z,0.90
2022-11-07T07:46:57.971Z,1.15
2022-11-07T07:49:27.440Z,1.05
2022-11-07T07:51:57.559Z,0.70
2022-11-07T07:54:27.049Z,1.40
2022-11-07T07:56:57.823Z,1.00
2022-11-07T07:59:27.342Z,1.00
2022-11-07T08:01:57.539Z,0.93
2022-11-07T08:04:27.602Z,1.15
2022-11-07T08:06:57.193Z,1.30
2022-11-07T08:09:26.572Z,1.40
2022-11-07T08:11:55.961Z,1.10
2022-11-07T08:14:26.686Z,0.80
2022-11-07T08:16:56.161Z,1.00
2022-11-07T08:19:26.329Z,1.15
2022-11-07T08:21:55.743Z,1.00
2022-11-07T08:24:25.239Z,0.85
2022-11-07T08:26:54.772Z,1.65
2022-11-07T08:29:24.164Z,0.90
2022-11-07T08:31:54.957Z,1.00
2022-11-07T08:34:24.720Z,0.93
2022-11-07T08:36:54.260Z,1.25
2022-11-07T08:39:23.729Z,1.02
2022-11-07T08:41:55.077Z,1.30
2022-11-07T08:44:24.515Z,1.13
2022-11-07T08:46:55.264Z,1.05
2022-11-07T08:49:24.926Z,0.98
2022-11-07T08:51:54.375Z,1.20
2022-11-07T08:54:25.716Z,1.00
2022-11-07T08:56:55.309Z,1.60
2022-11-07T08:59:24.719Z,1.02
2022-11-07T09:02:36.960Z,1.13
2022-11-07T09:04:45.247Z,1.15
2022-11-07T09:07:14.810Z,1.05
2022-11-07T09:09:44.273Z,1.20
2022-11-07T09:12:13.687Z,1.20
2022-11-07T09:14:43.067Z,1.10
2022-11-07T09:17:13.879Z,1.23
2022-11-07T09:19:43.277Z,0.70
2022-11-07T09:22:12.724Z,1.00
2022-11-07T09:24:42.140Z,1.08
2022-11-07T09:27:11.664Z,1.15
2022-11-07T09:29:41.219Z,1.08
2022-11-07T09:32:38.238Z,1.15
2022-11-07T09:35:04.680Z,1.15
2022-11-07T09:37:34.608Z,1.27
2022-11-07T09:40:04.639Z,0.80
2022-11-07T09:42:47.705Z,1.00
2022-11-07T09:45:17.886Z,0.70
2022-11-07T09:47:56.021Z,0.90
2022-11-07T09:50:35.253Z,0.88
2022-11-07T09:53:13.614Z,1.00
2022-11-07T09:55:52.848Z,0.90
2022-11-07T09:58:32.884Z,1.00
2022-11-07T10:01:07.707Z,1.05
2022-11-07T10:03:43.165Z,1.00
2022-11-07T10:06:28.996Z,0.90
2022-11-07T10:09:13.143Z,1.38
2022-11-07T10:11:51.453Z,1.00
2022-11-07T10:14:35.755Z,0.60
2022-11-07T10:17:21.738Z,0.88
2022-11-07T10:20:14.732Z,0.93
2022-11-07T10:23:09.563Z,1.17
2022-11-07T10:25:49.486Z,1.15
2022-11-07T10:28:22.106Z,0.80
2022-11-07T10:30:55.516Z,0.90
2022-11-07T10:33:41.118Z,0.90
2022-11-07T10:36:23.748Z,1.20
2022-11-07T10:38:55.267Z,1.27
2022-11-07T10:41:28.186Z,0.90
2022-11-07T10:44:03.753Z,1.25
2022-11-07T10:46:41.289Z,0.77
2022-11-07T10:49:23.009Z,1.10
2022-11-07T10:51:53.656Z,0.95
2022-11-07T10:54:31.304Z,1.02
2022-11-07T10:57:06.965Z,1.02
2022-11-07T10:59:41.492Z,0.82
2022-11-07T11:02:23.085Z,1.05
2022-11-07T11:04:56.158Z,1.10
2022-11-07T11:10:20.123Z,1.10
2022-11-07T11:12:50.906Z,1.05
2022-11-07T11:15:23.823Z,1.00
2022-11-07T11:18:03.127Z,1.40
2022-11-07T11:20:39.816Z,1.45
2022-11-07T11:23:23.673Z,1.38
2022-11-07T11:26:03.140Z,0.88
2022-11-07T11:28:40.965Z,1.20
2022-11-07T11:31:30.928Z,0.73
2022-11-07T11:34:11.349Z,1.23
2022-11-07T11:36:47.042Z,1.27
2022-11-07T11:39:27.143Z,1.15
2022-11-07T11:42:00.322Z,1.13
2022-11-07T11:44:39.474Z,0.80
2022-11-07T11:47:17.808Z,1.42
2022-11-07T11:49:52.235Z,1.17
2022-11-07T11:52:25.894Z,1.10
2022-11-07T11:54:57.923Z,0.80
2022-11-07T11:57:40.169Z,1.20
2022-11-07T12:00:15.685Z,1.40
2022-11-07T12:03:14.550Z,0.80
2022-11-07T12:06:13.142Z,1.50
2022-11-07T12:09:38.363Z,0.90
2022-11-07T12:12:30.354Z,1.08
2022-11-07T12:15:30.612Z,0.80
2022-11-07T12:18:12.016Z,0.88
2022-11-07T12:20:59.056Z,0.90
2022-11-07T12:23:49.884Z,1.02
2022-11-07T12:26:29.529Z,0.90
2022-11-07T12:29:16.608Z,1.20
2022-11-07T12:32:08.509Z,0.90
2022-11-07T12:35:02.737Z,1.13
2022-11-07T12:38:04.310Z,0.98
2022-11-07T12:40:49.337Z,0.95
2022-11-07T12:43:45.923Z,0.80
2022-11-07T12:46:29.044Z,1.25
2022-11-07T12:49:40.720Z,0.80
2022-11-07T12:52:30.396Z,0.98
2022-11-07T12:55:04.144Z,1.08
2022-11-07T12:57:57.348Z,0.93
2022-11-07T13:00:30.443Z,0.90
2022-11-07T13:03:46.867Z,1.30
2022-11-07T13:06:26.918Z,0.95
2022-11-07T13:09:14.427Z,0.60
2022-11-07T13:11:54.007Z,0.98
2022-11-07T13:14:33.018Z,1.45
2022-11-07T13:17:48.021Z,1.30
2022-11-07T13:23:47.559Z,1.33
2022-11-07T13:26:46.512Z,2.75
2022-11-07T13:29:34.165Z,0.95
2022-11-07T13:32:10.971Z,0.98
2022-11-07T13:34:51.225Z,0.80
2022-11-07T13:37:32.126Z,1.05
2022-11-07T13:40:08.292Z,1.00
2022-11-07T13:42:37.984Z,0.95
2022-11-07T13:45:27.931Z,1.25
2022-11-07T13:48:05.930Z,1.17
2022-11-07T13:50:50.887Z,1.55
2022-11-07T13:53:32.268Z,1.23
2022-11-07T13:56:10.764Z,1.20
2022-11-07T13:58:42.915Z,1.15
2022-11-07T14:01:14.671Z,1.10
2022-11-07T14:03:44.134Z,0.93
2022-11-07T14:06:15.581Z,1.15
2022-11-07T14:08:49.397Z,1.05
2022-11-07T14:11:22.771Z,1.00
2022-11-07T14:13:55.268Z,0.80
2022-11-07T14:16:30.573Z,0.95
2022-11-07T14:19:04.268Z,1.50
2022-11-07T14:21:37.229Z,1.17
2022-11-07T14:27:05.151Z,1.08
2022-11-07T14:29:34.847Z,1.23
2022-11-07T14:32:08.300Z,1.35
2022-11-07T14:34:45.880Z,1.55
2022-11-07T14:37:21.105Z,1.35
2022-11-07T14:39:53.279Z,0.75
2022-11-07T14:42:25.493Z,0.73
2022-11-07T14:44:57.764Z,1.42
2022-11-07T14:47:32.381Z,1.10
2022-11-07T14:50:06.396Z,0.95
2022-11-07T14:52:42.416Z,1.20
2022-11-07T14:55:21.585Z,1.40
2022-11-07T14:57:52.036Z,1.30
2022-11-07T15:00:24.017Z,0.80
2022-11-07T15:02:59.216Z,0.88
2022-11-07T15:05:32.932Z,1.27
2022-11-07T15:08:02.501Z,1.05
2022-11-07T15:10:39.551Z,1.30
2022-11-07T15:13:26.217Z,1.05
2022-11-07T15:16:05.078Z,1.13
2022-11-07T15:18:40.526Z,1.00
2022-11-07T15:21:26.224Z,1.40
2022-11-07T15:23:55.697Z,2.17
2022-11-07T15:26:33.021Z,1.90
2022-11-07T15:29:20.875Z,2.38
2022-11-07T15:31:50.917Z,2.35
2022-11-07T15:34:45.204Z,1.63
2022-11-07T15:37:13.313Z,1.80
2022-11-07T15:39:42.822Z,1.83
2022-11-07T15:42:13.672Z,2.40
2022-11-07T15:44:43.772Z,1.75
2022-11-07T15:47:20.295Z,1.42
2022-11-07T15:49:50.354Z,1.40
2022-11-07T15:52:19.844Z,1.40
2022-11-07T15:54:49.268Z,1.70
2022-11-07T15:57:20.849Z,1.33
2022-11-07T15:59:50.520Z,1.13
2022-11-07T16:02:20.022Z,1.20
2022-11-07T16:04:49.564Z,1.23
2022-11-07T16:07:21.048Z,1.30
2022-11-07T16:09:50.568Z,1.15
2022-11-07T16:12:21.408Z,1.10
2022-11-07T16:14:51.071Z,1.48
2022-11-07T16:17:21.196Z,1.10
2022-11-07T16:19:50.595Z,1.63
2022-11-07T16:22:20.023Z,1.38
2022-11-07T16:24:49.446Z,1.85
2022-11-07T16:27:20.706Z,1.70
2022-11-07T16:29:50.191Z,1.88
2022-11-07T16:32:19.675Z,2.03
2022-11-07T16:34:49.166Z,2.22
2022-11-07T16:37:18.873Z,1.95
2022-11-07T16:39:48.260Z,1.90
2022-11-07T16:42:21.548Z,2.00
2022-11-07T16:44:51.052Z,2.47
2022-11-07T16:47:20.566Z,2.42
2022-11-07T16:49:53.524Z,1.55
2022-11-07T16:52:28.120Z,1.92
2022-11-07T16:54:57.520Z,2.03
2022-11-07T16:57:28.411Z,1.63
2022-11-07T16:59:57.792Z,2.05
2022-11-07T17:02:28.276Z,2.33
2022-11-07T17:04:57.722Z,2.00
2022-11-07T17:07:27.290Z,2.47
2022-11-07T17:09:56.687Z,3.92
2022-11-07T17:12:27.896Z,3.83
2022-11-07T17:14:57.297Z,4.22
2022-11-07T17:17:26.778Z,4.55
2022-11-07T17:19:56.169Z,4.10
2022-11-07T17:22:25.550Z,4.95
2022-11-07T17:24:54.968Z,4.47
2022-11-07T17:27:27.204Z,3.78
2022-11-07T17:29:57.004Z,3.30
2022-11-07T17:32:26.452Z,3.92
2022-11-07T17:35:18.232Z,4.30
2022-11-07T17:37:45.240Z,4.70
2022-11-07T17:40:22.404Z,4.05
2022-11-07T17:42:53.155Z,3.88
2022-11-07T17:45:22.614Z,3.80
2022-11-07T17:47:52.183Z,3.88
2022-11-07T17:50:23.784Z,3.90
2022-11-07T17:52:53.565Z,4.50
2022-11-07T17:55:24.553Z,4.53
2022-11-07T17:57:55.583Z,5.07
2022-11-07T18:00:27.931Z,5.20
2022-11-07T18:02:57.409Z,4.60
2022-11-07T18:05:32.842Z,6.03
2022-11-07T18:08:03.167Z,5.57
2022-11-07T18:10:32.873Z,5.35
2022-11-07T18:13:03.631Z,5.78
2022-11-07T18:15:33.045Z,5.05
2022-11-07T18:18:06.777Z,4.78
2022-11-07T18:20:39.135Z,5.95
2022-11-07T18:23:08.577Z,6.80
2022-11-07T18:25:38.579Z,5.75
2022-11-07T18:28:09.315Z,6.32
2022-11-07T18:30:38.682Z,7.70
2022-11-07T18:33:08.087Z,8.35
2022-11-07T18:35:37.503Z,8.23
2022-11-07T18:38:06.931Z,8.57
2022-11-07T18:40:36.411Z,9.23
2022-11-07T18:43:05.804Z,10.77
2022-11-07T18:45:36.576Z,10.68
2022-11-07T18:48:06.777Z,10.18
2022-11-07T18:50:39.867Z,8.68
2022-11-07T18:53:09.366Z,8.73
2022-11-07T18:55:38.736Z,8.25
2022-11-07T18:58:08.321Z,7.43
2022-11-07T19:00:39.319Z,8.43
2022-11-07T19:03:08.728Z,8.07
2022-11-07T19:05:41.182Z,8.82
2022-11-07T19:08:10.810Z,10.60
2022-11-07T19:10:40.360Z,9.30
2022-11-07T19:13:09.768Z,8.93
2022-11-07T19:15:41.345Z,7.50
2022-11-07T19:18:10.873Z,7.10
2022-11-07T19:20:40.714Z,7.20
2022-11-07T19:23:11.432Z,6.70
2022-11-07T19:25:41.607Z,7.55
2022-11-07T19:28:11.452Z,6.85
2022-11-07T19:30:43.018Z,6.72
2022-11-07T19:33:13.030Z,6.35
2022-11-07T19:35:43.373Z,6.28
2022-11-07T19:38:15.042Z,6.07
2022-11-07T19:40:50.457Z,7.00
2022-11-07T19:43:20.106Z,6.22
2022-11-07T19:45:50.986Z,6.97
2022-11-07T19:48:20.415Z,6.40
2022-11-07T19:50:49.820Z,6.20
2022-11-07T19:53:21.370Z,5.90
2022-11-07T19:55:50.843Z,6.13
2022-11-07T19:58:20.255Z,6.65
2022-11-07T20:00:51.093Z,5.65
2022-11-07T20:03:21.563Z,5.60
2022-11-07T20:05:51.808Z,5.25
2022-11-07T20:08:21.213Z,6.05
2022-11-07T20:10:51.671Z,6.20
2022-11-07T20:13:21.160Z,4.80
2022-11-07T20:15:51.909Z,5.50
2022-11-07T20:18:21.494Z,5.57
2022-11-07T20:20:51.184Z,5.85
2022-11-07T20:23:20.760Z,5.80
2022-11-07T20:25:50.234Z,5.65
2022-11-07T20:28:19.676Z,5.75
2022-11-07T20:30:49.154Z,5.47
2022-11-07T20:33:20.233Z,5.03
2022-11-07T20:36:00.718Z,5.38
2022-11-07T20:38:30.704Z,4.40
2022-11-07T20:41:00.705Z,5.07
2022-11-07T20:43:30.613Z,4.93
2022-11-07T20:46:05.615Z,4.90
2022-11-07T20:48:37.194Z,6.15
2022-11-07T20:51:11.110Z,5.40
2022-11-07T20:53:46.744Z,5.75
2022-11-07T20:56:19.510Z,5.30
2022-11-07T20:58:50.064Z,4.72
2022-11-07T21:01:27.416Z,4.88
2022-11-07T21:04:00.799Z,4.82
2022-11-07T21:06:30.463Z,4.57
2022-11-07T21:08:59.985Z,4.60
2022-11-07T21:11:31.107Z,4.18
2022-11-07T21:14:00.797Z,4.65
2022-11-07T21:16:34.409Z,4.13
2022-11-07T21:19:06.892Z,4.75
2022-11-07T21:21:36.252Z,4.73
2022-11-07T21:24:06.444Z,4.50
2022-11-07T21:26:39.917Z,3.70
2022-11-07T21:29:10.955Z,4.60
2022-11-07T21:31:42.052Z,4.35
2022-11-07T21:34:12.912Z,5.90
2022-11-07T21:36:42.596Z,5.50
2022-11-07T21:39:12.459Z,5.43
2022-11-07T21:41:41.815Z,5.70
2022-11-07T21:44:12.623Z,5.40
2022-11-07T21:46:42.048Z,4.60
2022-11-07T21:49:12.827Z,4.93
2022-11-07T21:51:42.456Z,4.57
2022-11-07T21:54:12.711Z,5.18
2022-11-07T21:56:42.108Z,4.45
2022-11-07T21:59:13.330Z,4.45
2022-11-07T22:01:43.467Z,4.63
2022-11-07T22:04:14.288Z,4.13
2022-11-07T22:06:45.760Z,5.30
2022-11-07T22:09:18.411Z,3.90
2022-11-07T22:11:47.967Z,4.55
2022-11-07T22:14:20.949Z,4.47
2022-11-07T22:16:56.098Z,3.85
2022-11-07T22:19:27.758Z,4.15
2022-11-07T22:21:57.125Z,3.67
2022-11-07T22:24:27.246Z,4.05
2022-11-07T22:26:57.213Z,4.15
2022-11-07T22:29:26.728Z,4.00
2022-11-07T22:31:56.142Z,3.65
2022-11-07T22:34:27.069Z,4.53
2022-11-07T22:36:56.471Z,4.38
2022-11-07T22:39:25.867Z,4.10
2022-11-07T22:41:55.217Z,4.30
2022-11-07T22:44:24.667Z,4.55
2022-11-07T22:46:56.754Z,4.75
2022-11-07T22:49:27.544Z,4.20
2022-11-07T22:51:56.959Z,4.60
2022-11-07T22:54:26.326Z,4.18
2022-11-07T22:56:55.707Z,5.40
2022-11-07T22:59:25.090Z,5.60
2022-11-07T23:01:54.675Z,4.75
2022-11-07T23:04:26.441Z,4.60
2022-11-07T23:07:00.801Z,4.80
2022-11-07T23:09:30.230Z,4.38
2022-11-07T23:12:00.449Z,4.40
2022-11-07T23:14:29.954Z,4.25
2022-11-07T23:16:59.341Z,4.82
2022-11-07T23:19:28.826Z,5.13
2022-11-07T23:21:59.306Z,4.30
2022-11-07T23:24:30.215Z,3.88
2022-11-07T23:26:59.692Z,4.30
2022-11-07T23:29:29.132Z,4.05
2022-11-07T23:31:58.492Z,4.35
2022-11-07T23:34:29.126Z,4.85
2022-11-07T23:36:58.692Z,5.70
2022-11-07T23:39:30.252Z,5.28
2022-11-07T23:41:59.640Z,4.65
2022-11-07T23:44:28.990Z,6.68
2022-11-07T23:47:15.977Z,4.55
2022-11-07T23:50:02.955Z,4.78
2022-11-07T23:52:32.319Z,3.88
2022-11-07T23:55:20.666Z,4.22
2022-11-07T23:58:07.576Z,4.82
